createdAt,value
2023-02-06T00:01:17.294Z,19.58
2023-02-06T00:03:43.836Z,8.48
2023-02-06T00:06:10.580Z,3.03
2023-02-06T00:08:37.407Z,3.30
2023-02-06T00:11:07.438Z,11.23
2023-02-06T00:13:36.164Z,2.55
2023-02-06T00:16:03.211Z,3.13
2023-02-06T00:18:29.988Z,5.45
2023-02-06T00:20:56.478Z,3.50
2023-02-06T00:23:23.076Z,2.33
2023-02-06T00:25:49.551Z,4.22
2023-02-06T00:28:16.219Z,2.60
2023-02-06T00:30:46.638Z,4.50
2023-02-06T00:33:13.156Z,3.70
2023-02-06T00:35:39.639Z,3.63
2023-02-06T00:38:06.774Z,2.63
2023-02-06T00:40:33.252Z,4.75
2023-02-06T00:42:59.739Z,4.13
2023-02-06T00:45:26.275Z,3.75
2023-02-06T00:47:52.839Z,3.60
2023-02-06T00:50:19.371Z,3.88
2023-02-06T00:52:46.074Z,4.47
2023-02-06T00:55:13.003Z,7.65
2023-02-06T00:57:40.220Z,6.63
2023-02-06T01:00:09.147Z,5.35
2023-02-06T01:02:36.298Z,3.97
2023-02-06T01:05:03.072Z,5.50
2023-02-06T01:07:29.795Z,3.00
2023-02-06T01:09:56.363Z,3.67
2023-02-06T01:12:22.886Z,3.17
2023-02-06T01:14:49.410Z,2.92
2023-02-06T01:17:16.001Z,5.85
2023-02-06T01:19:42.457Z,3.85
2023-02-06T01:22:08.987Z,4.70
2023-02-06T01:24:36.341Z,2.97
2023-02-06T01:27:02.992Z,2.58
2023-02-06T01:29:29.457Z,3.38
2023-02-06T01:31:56.009Z,2.20
2023-02-06T01:34:22.472Z,4.75
2023-02-06T01:36:48.926Z,4.20
2023-02-06T01:39:15.468Z,6.78
2023-02-06T01:41:42.589Z,2.45
2023-02-06T01:44:22.615Z,2.83
2023-02-06T01:46:55.849Z,4.15
2023-02-06T01:49:25.527Z,3.35
2023-02-06T01:51:56.010Z,2.05
2023-02-06T01:54:23.393Z,3.25
2023-02-06T01:56:55.176Z,5.72
2023-02-06T01:59:22.172Z,3.88
2023-02-06T02:01:48.814Z,1.92
2023-02-06T02:04:19.722Z,4.65
2023-02-06T02:06:56.076Z,4.03
2023-02-06T02:09:22.791Z,3.40
2023-02-06T02:11:49.235Z,2.88
2023-02-06T02:14:16.964Z,2.45
2023-02-06T02:17:08.649Z,2.15
2023-02-06T02:19:53.664Z,2.70
2023-02-06T02:25:13.836Z,1.70
2023-02-06T02:28:07.071Z,2.20
2023-02-06T02:30:46.923Z,3.80
2023-02-06T02:33:28.575Z,3.17
2023-02-06T02:36:10.195Z,2.97
2023-02-06T02:38:53.164Z,2.92
2023-02-06T02:41:24.945Z,4.28
2023-02-06T02:43:58.135Z,3.70
2023-02-06T02:46:32.670Z,5.22
2023-02-06T02:49:06.586Z,3.60
2023-02-06T02:51:34.243Z,4.15
2023-02-06T02:54:00.766Z,5.07
2023-02-06T02:56:27.763Z,2.60
2023-02-06T02:58:59.377Z,9.10
2023-02-06T03:01:32.838Z,2.65
2023-02-06T03:04:07.137Z,2.42
2023-02-06T03:06:52.352Z,3.72
2023-02-06T03:09:30.331Z,2.90
2023-02-06T03:12:10.356Z,4.78
2023-02-06T03:14:51.265Z,4.97
2023-02-06T03:17:31.133Z,4.00
2023-02-06T03:20:01.099Z,4.05
2023-02-06T03:22:28.855Z,3.00
2023-02-06T03:24:56.712Z,2.83
2023-02-06T03:27:27.186Z,2.22
2023-02-06T03:29:56.254Z,2.50
2023-02-06T03:32:34.374Z,2.10
2023-02-06T03:35:10.442Z,1.83
2023-02-06T03:37:38.289Z,2.25
2023-02-06T03:40:07.558Z,3.20
2023-02-06T03:42:39.072Z,2.53
2023-02-06T03:45:17.146Z,3.05
2023-02-06T03:47:46.460Z,3.33
2023-02-06T03:50:15.017Z,2.35
2023-02-06T03:52:46.950Z,1.67
2023-02-06T03:55:22.813Z,1.25
2023-02-06T03:57:53.882Z,3.13
2023-02-06T04:00:20.901Z,3.67
2023-02-06T04:02:49.236Z,4.20
2023-02-06T04:05:17.944Z,6.95
2023-02-06T04:07:44.617Z,5.03
2023-02-06T04:10:11.550Z,1.30
2023-02-06T04:12:38.843Z,4.20
2023-02-06T04:15:05.875Z,3.08
2023-02-06T04:17:49.713Z,3.58
2023-02-06T04:20:20.126Z,1.63
2023-02-06T04:22:47.031Z,4.88
2023-02-06T04:25:13.854Z,2.03
2023-02-06T04:27:40.361Z,2.17
2023-02-06T04:30:07.470Z,3.22
2023-02-06T04:32:34.079Z,6.00
2023-02-06T04:35:01.798Z,6.13
2023-02-06T04:37:28.313Z,5.35
2023-02-06T04:39:54.891Z,3.30
2023-02-06T04:42:21.480Z,6.63
2023-02-06T04:44:47.944Z,5.07
2023-02-06T04:47:14.429Z,2.47
2023-02-06T04:49:40.891Z,1.88
2023-02-06T04:52:07.383Z,6.70
2023-02-06T04:54:33.906Z,3.30
2023-02-06T04:57:00.394Z,6.88
2023-02-06T04:59:27.024Z,4.25
2023-02-06T05:01:53.587Z,2.53
2023-02-06T05:04:20.137Z,5.22
2023-02-06T05:06:46.703Z,3.42
2023-02-06T05:09:13.283Z,3.80
2023-02-06T05:11:39.811Z,7.38
2023-02-06T05:14:06.291Z,8.80
2023-02-06T05:16:32.849Z,3.63
2023-02-06T05:18:59.432Z,5.13
2023-02-06T05:21:26.380Z,5.72
2023-02-06T05:23:53.687Z,2.53
2023-02-06T05:26:20.642Z,7.80
2023-02-06T05:28:47.664Z,3.80
2023-02-06T05:31:20.019Z,7.00
2023-02-06T05:33:50.377Z,4.07
2023-02-06T05:36:18.579Z,4.93
2023-02-06T05:38:45.144Z,4.57
2023-02-06T05:41:11.751Z,7.63
2023-02-06T05:43:38.362Z,4.70
2023-02-06T05:46:05.025Z,3.40
2023-02-06T05:48:34.432Z,3.47
2023-02-06T05:51:01.827Z,4.30
2023-02-06T05:53:28.464Z,8.30
2023-02-06T05:55:55.756Z,9.40
2023-02-06T05:58:22.333Z,5.35
2023-02-06T06:00:49.026Z,4.43
2023-02-06T06:03:15.595Z,4.40
2023-02-06T06:05:42.053Z,3.67
2023-02-06T06:08:08.557Z,5.37
2023-02-06T06:10:35.127Z,4.85
2023-02-06T06:13:01.645Z,4.77
2023-02-06T06:15:28.189Z,6.30
2023-02-06T06:17:55.211Z,4.73
2023-02-06T06:20:21.846Z,7.87
2023-02-06T06:22:48.432Z,3.80
2023-02-06T06:25:14.963Z,8.53
2023-02-06T06:27:41.613Z,3.30
2023-02-06T06:30:09.047Z,4.00
2023-02-06T06:32:36.434Z,4.47
2023-02-06T06:35:02.950Z,6.97
2023-02-06T06:37:29.473Z,5.30
2023-02-06T06:39:56.473Z,8.40
2023-02-06T06:42:23.056Z,5.80
2023-02-06T06:44:49.564Z,7.30
2023-02-06T06:47:16.086Z,6.33
2023-02-06T06:49:42.583Z,5.05
2023-02-06T06:52:23.065Z,4.67
2023-02-06T06:54:52.526Z,6.20
2023-02-06T06:57:19.273Z,10.03
2023-02-06T06:59:45.796Z,3.63
2023-02-06T07:02:12.375Z,3.88
2023-02-06T07:04:38.958Z,8.30
2023-02-06T07:07:05.827Z,7.53
2023-02-06T07:09:32.383Z,6.30
2023-02-06T07:11:59.489Z,8.60
2023-02-06T07:14:25.994Z,9.67
2023-02-06T07:16:52.502Z,5.93
2023-02-06T07:19:19.092Z,6.13
2023-02-06T07:21:45.587Z,5.67
2023-02-06T07:24:12.084Z,5.83
2023-02-06T07:26:38.607Z,16.00
2023-02-06T07:29:05.180Z,4.33
2023-02-06T07:31:31.990Z,6.40
2023-02-06T07:34:01.096Z,7.70
2023-02-06T07:36:27.720Z,7.00
2023-02-06T07:38:54.171Z,3.33
2023-02-06T07:41:20.732Z,7.03
2023-02-06T07:43:47.356Z,4.77
2023-02-06T07:46:13.956Z,13.53
2023-02-06T07:48:40.496Z,9.33
2023-02-06T07:51:08.690Z,15.27
2023-02-06T07:53:35.963Z,10.63
2023-02-06T07:56:02.699Z,5.77
2023-02-06T07:58:29.219Z,12.20
2023-02-06T08:00:56.122Z,13.67
2023-02-06T08:03:22.717Z,10.43
2023-02-06T08:05:49.236Z,9.00
2023-02-06T08:08:15.751Z,14.37
2023-02-06T08:10:42.328Z,9.13
2023-02-06T08:13:08.933Z,10.70
2023-02-06T08:15:35.789Z,7.30
2023-02-06T08:18:02.965Z,4.27
2023-02-06T08:20:29.456Z,8.38
2023-02-06T08:22:56.833Z,6.77
2023-02-06T08:25:24.743Z,8.23
2023-02-06T08:27:55.809Z,13.90
2023-02-06T08:30:23.197Z,7.73
2023-02-06T08:32:50.124Z,11.57
2023-02-06T08:35:16.868Z,10.60
2023-02-06T08:37:43.419Z,8.87
2023-02-06T08:40:10.662Z,5.70
2023-02-06T08:42:37.141Z,8.77
2023-02-06T08:45:04.247Z,10.13
2023-02-06T08:47:31.185Z,16.83
2023-02-06T08:49:57.688Z,15.07
2023-02-06T08:52:24.290Z,16.85
2023-02-06T08:54:52.036Z,28.02
2023-02-06T08:57:18.541Z,49.80
2023-02-06T08:59:45.100Z,11.75
2023-02-06T09:02:11.795Z,11.93
2023-02-06T09:04:39.068Z,13.75
2023-02-06T09:07:06.111Z,11.52
2023-02-06T09:09:32.608Z,9.15
2023-02-06T09:12:04.098Z,19.10
2023-02-06T09:14:31.871Z,7.22
2023-02-06T09:16:58.555Z,10.65
2023-02-06T09:19:26.403Z,14.95
2023-02-06T09:21:53.351Z,10.35
2023-02-06T09:24:20.458Z,10.23
2023-02-06T09:26:58.965Z,8.27
2023-02-06T09:29:29.008Z,7.97
2023-02-06T09:31:57.408Z,11.77
2023-02-06T09:34:25.999Z,15.82
2023-02-06T09:36:54.674Z,5.10
2023-02-06T09:39:21.374Z,8.18
2023-02-06T09:41:59.806Z,13.15
2023-02-06T09:44:34.493Z,13.05
2023-02-06T09:50:07.941Z,10.10
2023-02-06T09:53:11.272Z,7.28
2023-02-06T09:55:42.796Z,9.68
2023-02-06T09:58:22.535Z,8.43
2023-02-06T10:00:55.956Z,4.90
2023-02-06T10:03:53.173Z,10.45
2023-02-06T10:06:19.738Z,4.93
2023-02-06T10:09:02.260Z,11.63
2023-02-06T10:11:39.391Z,4.93
2023-02-06T10:14:18.983Z,4.68
2023-02-06T10:16:54.772Z,9.02
2023-02-06T10:20:03.666Z,9.05
2023-02-06T10:22:51.916Z,7.03
2023-02-06T10:25:25.004Z,6.28
2023-02-06T10:27:57.714Z,6.65
2023-02-06T10:31:02.533Z,6.88
2023-02-06T10:33:41.203Z,8.70
2023-02-06T10:36:32.471Z,3.55
2023-02-06T10:39:06.085Z,3.78
2023-02-06T10:42:08.044Z,6.70
2023-02-06T10:44:59.509Z,6.35
2023-02-06T10:47:57.341Z,5.97
2023-02-06T10:50:36.291Z,5.65
2023-02-06T10:53:16.084Z,3.85
2023-02-06T10:56:06.178Z,3.75
2023-02-06T10:58:48.514Z,2.10
2023-02-06T11:01:25.626Z,3.17
2023-02-06T11:04:27.360Z,4.32
2023-02-06T11:07:01.844Z,3.40
2023-02-06T11:09:28.447Z,9.48
2023-02-06T11:11:58.398Z,5.63
2023-02-06T11:14:28.724Z,5.75
2023-02-06T11:16:58.944Z,4.45
2023-02-06T11:19:30.320Z,4.68
2023-02-06T11:22:16.454Z,2.88
2023-02-06T11:25:04.711Z,5.70
2023-02-06T11:27:33.935Z,4.38
2023-02-06T11:30:07.826Z,6.65
2023-02-06T11:32:40.729Z,4.13
2023-02-06T11:35:31.866Z,4.97
2023-02-06T11:38:25.210Z,6.72
2023-02-06T11:41:06.423Z,3.70
2023-02-06T11:43:47.638Z,7.13
2023-02-06T11:46:19.659Z,12.50
2023-02-06T11:48:48.935Z,5.70
2023-02-06T11:51:16.897Z,4.03
2023-02-06T11:54:01.832Z,4.38
2023-02-06T11:56:30.137Z,3.38
2023-02-06T11:59:17.875Z,1.75
2023-02-06T12:01:46.734Z,2.65
2023-02-06T12:04:37.705Z,2.70
2023-02-06T12:07:06.909Z,1.15
2023-02-06T12:09:33.554Z,1.27
2023-02-06T12:12:06.937Z,1.92
2023-02-06T12:14:54.301Z,2.35
2023-02-06T12:17:37.800Z,2.58
2023-02-06T12:20:20.586Z,3.88
2023-02-06T12:22:54.184Z,5.13
2023-02-06T12:25:36.104Z,6.57
2023-02-06T12:28:15.679Z,1.48
2023-02-06T12:30:51.132Z,2.65
2023-02-06T12:33:22.911Z,2.03
2023-02-06T12:35:58.665Z,4.13
2023-02-06T12:38:27.888Z,1.85
2023-02-06T12:41:29.883Z,1.95
2023-02-06T12:44:03.601Z,2.90
2023-02-06T12:46:31.211Z,3.10
2023-02-06T12:49:07.773Z,1.48
2023-02-06T12:51:43.269Z,1.40
2023-02-06T12:54:17.249Z,2.08
2023-02-06T12:56:50.065Z,1.95
2023-02-06T12:59:16.524Z,2.63
2023-02-06T13:01:50.019Z,4.43
2023-02-06T13:04:23.590Z,3.65
2023-02-06T13:07:16.501Z,2.85
2023-02-06T13:09:53.214Z,2.00
2023-02-06T13:12:25.305Z,1.80
2023-02-06T13:14:57.915Z,2.75
2023-02-06T13:17:26.841Z,2.42
2023-02-06T13:20:11.382Z,2.30
2023-02-06T13:22:44.934Z,3.58
2023-02-06T13:25:29.503Z,2.05
2023-02-06T13:27:59.361Z,3.13
2023-02-06T13:30:28.882Z,2.83
2023-02-06T13:33:10.899Z,4.80
2023-02-06T13:36:10.084Z,4.82
2023-02-06T13:38:42.356Z,3.08
2023-02-06T13:41:14.648Z,6.60
2023-02-06T13:43:55.476Z,2.40
2023-02-06T13:46:36.989Z,1.85
2023-02-06T13:49:38.711Z,3.60
2023-02-06T13:52:35.363Z,2.35
2023-02-06T13:55:40.532Z,3.08
2023-02-06T13:58:09.681Z,6.22
2023-02-06T14:00:41.944Z,3.05
2023-02-06T14:03:31.306Z,3.47
2023-02-06T14:06:10.331Z,4.15
2023-02-06T14:08:48.923Z,2.55
2023-02-06T14:12:02.131Z,4.18
2023-02-06T14:14:44.141Z,2.67
2023-02-06T14:17:39.197Z,3.22
2023-02-06T14:20:40.895Z,23.27
2023-02-06T14:23:14.983Z,8.68
2023-02-06T14:25:59.420Z,51.97
2023-02-06T14:28:53.287Z,1.92
2023-02-06T14:31:46.226Z,5.85
2023-02-06T14:34:37.900Z,1.48
2023-02-06T14:37:25.970Z,5.70
2023-02-06T14:39:54.998Z,2.55
2023-02-06T14:42:36.124Z,2.78
2023-02-06T14:45:07.766Z,1.48
2023-02-06T14:47:42.320Z,1.23
2023-02-06T14:50:19.200Z,2.70
2023-02-06T14:52:50.906Z,1.40
2023-02-06T14:55:39.001Z,1.60
2023-02-06T14:58:18.625Z,4.32
2023-02-06T15:00:45.418Z,4.00
2023-02-06T15:03:22.363Z,3.30
2023-02-06T15:06:03.258Z,6.78
2023-02-06T15:08:31.557Z,2.67
2023-02-06T15:11:01.615Z,1.23
2023-02-06T15:13:35.041Z,1.40
2023-02-06T15:16:07.966Z,2.25
2023-02-06T15:18:36.049Z,1.95
2023-02-06T15:21:05.627Z,1.00
2023-02-06T15:23:49.635Z,2.22
2023-02-06T15:26:28.129Z,1.05
2023-02-06T15:28:59.731Z,0.90
2023-02-06T15:31:28.083Z,1.45
2023-02-06T15:33:58.180Z,2.38
2023-02-06T15:36:32.814Z,6.40
2023-02-06T15:41:28.775Z,1.85
2023-02-06T15:44:01.016Z,2.70
2023-02-06T15:46:30.152Z,3.17
2023-02-06T15:48:58.392Z,6.63
2023-02-06T15:51:28.556Z,3.47
2023-02-06T15:54:09.093Z,1.90
2023-02-06T15:56:42.121Z,3.58
2023-02-06T15:59:23.052Z,1.92
2023-02-06T16:01:51.824Z,2.28
2023-02-06T16:04:27.013Z,2.15
2023-02-06T16:07:10.234Z,2.50
2023-02-06T16:09:42.479Z,1.65
2023-02-06T16:12:09.724Z,2.67
2023-02-06T16:14:39.186Z,2.78
2023-02-06T16:17:22.105Z,2.80
2023-02-06T16:19:54.669Z,2.50
2023-02-06T16:22:21.086Z,5.38
2023-02-06T16:24:49.111Z,2.15
2023-02-06T16:27:28.465Z,1.55
2023-02-06T16:29:57.397Z,1.95
2023-02-06T16:32:28.446Z,4.38
2023-02-06T16:34:55.645Z,2.63
2023-02-06T16:37:28.625Z,2.05
2023-02-06T16:39:55.767Z,1.98
2023-02-06T16:42:32.599Z,2.20
2023-02-06T16:45:00.859Z,2.72
2023-02-06T16:47:28.297Z,1.90
2023-02-06T16:49:54.926Z,1.30
2023-02-06T16:52:25.853Z,1.30
2023-02-06T16:54:53.907Z,2.17
2023-02-06T16:57:32.019Z,1.15
2023-02-06T16:59:59.428Z,2.47
2023-02-06T17:02:27.658Z,8.18
2023-02-06T17:04:55.112Z,1.85
2023-02-06T17:07:24.331Z,3.25
2023-02-06T17:09:53.923Z,3.15
2023-02-06T17:12:22.157Z,2.25
2023-02-06T17:14:49.099Z,5.88
2023-02-06T17:17:19.128Z,2.83
2023-02-06T17:19:46.606Z,4.57
2023-02-06T17:22:13.529Z,6.63
2023-02-06T17:24:40.548Z,4.97
2023-02-06T17:27:11.359Z,4.55
2023-02-06T17:29:37.875Z,5.20
2023-02-06T17:32:06.153Z,6.57
2023-02-06T17:34:33.393Z,3.72
2023-02-06T17:37:00.837Z,6.07
2023-02-06T17:39:28.235Z,3.00
2023-02-06T17:41:54.925Z,6.60
2023-02-06T17:44:21.425Z,5.20
2023-02-06T17:46:49.647Z,7.03
2023-02-06T17:49:17.114Z,3.28
2023-02-06T17:51:45.215Z,9.05
2023-02-06T17:54:12.549Z,7.82
2023-02-06T17:56:39.428Z,7.50
2023-02-06T17:59:05.987Z,7.38
2023-02-06T18:01:32.927Z,11.10
2023-02-06T18:04:00.981Z,11.23
2023-02-06T18:06:33.419Z,11.57
2023-02-06T18:09:00.202Z,12.40
2023-02-06T18:11:26.760Z,6.47
2023-02-06T18:13:53.750Z,11.25
2023-02-06T18:16:23.060Z,7.47
2023-02-06T18:18:50.099Z,11.02
2023-02-06T18:21:21.562Z,17.80
2023-02-06T18:23:48.942Z,12.60
2023-02-06T18:26:16.207Z,10.85
2023-02-06T18:28:43.293Z,10.13
2023-02-06T18:31:31.038Z,15.23
2023-02-06T18:33:57.743Z,10.73
2023-02-06T18:36:24.716Z,10.13
2023-02-06T18:38:51.319Z,10.35
2023-02-06T18:41:36.605Z,13.50
2023-02-06T18:44:06.130Z,14.27
2023-02-06T18:46:33.576Z,17.65
2023-02-06T18:49:00.454Z,24.08
2023-02-06T18:51:29.150Z,17.02
2023-02-06T18:53:55.688Z,15.95
2023-02-06T18:56:22.370Z,16.75
2023-02-06T18:58:48.916Z,19.65
2023-02-06T19:01:21.377Z,20.35
2023-02-06T19:03:49.637Z,24.17
2023-02-06T19:06:25.742Z,24.85
2023-02-06T19:08:52.311Z,20.25
2023-02-06T19:11:18.862Z,30.20
2023-02-06T19:13:45.482Z,23.30
2023-02-06T19:16:18.064Z,21.92
2023-02-06T19:18:48.311Z,23.00
2023-02-06T19:21:25.364Z,22.27
2023-02-06T19:23:57.774Z,19.65
2023-02-06T19:26:24.950Z,20.42
2023-02-06T19:28:52.206Z,16.35
2023-02-06T19:31:25.559Z,20.92
2023-02-06T19:33:58.124Z,21.58
2023-02-06T19:36:26.710Z,23.15
2023-02-06T19:38:59.757Z,18.80
2023-02-06T19:41:28.582Z,19.65
2023-02-06T19:43:56.424Z,19.10
2023-02-06T19:46:25.960Z,20.88
2023-02-06T19:48:53.806Z,25.42
2023-02-06T19:51:29.581Z,19.95
2023-02-06T19:53:58.322Z,22.75
2023-02-06T19:56:32.729Z,22.70
2023-02-06T19:59:04.529Z,34.45
2023-02-06T20:01:32.016Z,21.55
2023-02-06T20:04:00.894Z,22.73
2023-02-06T20:06:29.403Z,18.95
2023-02-06T20:08:57.120Z,18.23
2023-02-06T20:11:23.903Z,26.15
2023-02-06T20:13:55.559Z,17.48
2023-02-06T20:16:29.121Z,20.50
2023-02-06T20:18:56.844Z,16.65
2023-02-06T20:21:28.125Z,19.25
2023-02-06T20:24:04.369Z,21.65
2023-02-06T20:26:34.477Z,19.48
2023-02-06T20:29:01.135Z,19.60
2023-02-06T20:31:28.875Z,26.88
2023-02-06T20:33:56.340Z,23.02
2023-02-06T20:36:24.756Z,21.83
2023-02-06T20:38:54.221Z,21.23
2023-02-06T20:41:23.566Z,17.58
2023-02-06T20:43:50.187Z,21.33
2023-02-06T20:46:20.923Z,20.38
2023-02-06T20:48:54.424Z,26.02
2023-02-06T20:51:21.092Z,21.70
2023-02-06T20:53:47.640Z,16.75
2023-02-06T20:56:15.421Z,17.85
2023-02-06T20:58:43.731Z,20.70
2023-02-06T21:01:19.631Z,24.08
2023-02-06T21:03:46.895Z,40.22
2023-02-06T21:06:14.225Z,39.35
2023-02-06T21:08:42.524Z,52.00
2023-02-06T21:11:09.726Z,37.35
2023-02-06T21:13:36.561Z,41.55
2023-02-06T21:16:03.157Z,56.40
2023-02-06T21:18:31.719Z,53.85
2023-02-06T21:21:07.285Z,60.08
2023-02-06T21:23:33.800Z,49.85
2023-02-06T21:26:00.545Z,39.05
2023-02-06T21:28:27.124Z,36.50
2023-02-06T21:31:03.861Z,43.13
2023-02-06T21:33:30.541Z,43.05
2023-02-06T21:35:57.180Z,37.90
2023-02-06T21:38:24.610Z,41.47
2023-02-06T21:40:51.133Z,35.03
2023-02-06T21:43:17.716Z,37.60
2023-02-06T21:45:47.320Z,38.63
2023-02-06T21:48:14.672Z,35.13
2023-02-06T21:50:41.457Z,36.17
2023-02-06T21:53:09.461Z,31.20
2023-02-06T21:55:42.065Z,32.95
2023-02-06T21:58:08.959Z,36.45
2023-02-06T22:00:35.713Z,35.08
2023-02-06T22:03:02.906Z,27.90
2023-02-06T22:05:29.494Z,31.45
2023-02-06T22:07:56.866Z,29.98
2023-02-06T22:10:23.410Z,31.10
2023-02-06T22:12:49.933Z,29.17
2023-02-06T22:15:16.602Z,41.50
2023-02-06T22:17:43.126Z,34.40
2023-02-06T22:20:09.958Z,41.72
2023-02-06T22:22:38.690Z,38.47
2023-02-06T22:25:05.822Z,35.13
2023-02-06T22:27:32.913Z,27.95
2023-02-06T22:29:59.415Z,29.30
2023-02-06T22:32:25.944Z,32.65
2023-02-06T22:34:53.909Z,37.10
2023-02-06T22:37:20.423Z,33.13
2023-02-06T22:39:47.416Z,27.00
2023-02-06T22:42:13.943Z,30.23
2023-02-06T22:44:40.436Z,28.45
2023-02-06T22:47:07.026Z,21.58
2023-02-06T22:49:33.533Z,24.45
2023-02-06T22:52:00.029Z,28.80
2023-02-06T22:54:26.589Z,21.95
2023-02-06T22:56:53.164Z,28.35
2023-02-06T22:59:22.666Z,28.63
2023-02-06T23:01:58.552Z,27.52
2023-02-06T23:04:27.104Z,28.50
2023-02-06T23:06:53.956Z,23.83
2023-02-06T23:09:24.007Z,27.33
2023-02-06T23:11:51.165Z,27.40
2023-02-06T23:14:19.369Z,24.25
2023-02-06T23:16:46.888Z,26.20
2023-02-06T23:19:14.606Z,23.42
2023-02-06T23:21:42.981Z,13.60
2023-02-06T23:24:10.808Z,12.80
2023-02-06T23:26:37.941Z,11.40
2023-02-06T23:29:09.391Z,13.13
2023-02-06T23:31:36.630Z,12.10
2023-02-06T23:34:03.693Z,8.98
2023-02-06T23:36:30.305Z,10.18
2023-02-06T23:38:56.917Z,7.82
2023-02-06T23:41:27.174Z,14.07
2023-02-06T23:43:58.676Z,15.77
2023-02-06T23:46:26.762Z,12.52
2023-02-06T23:48:54.333Z,24.95
2023-02-06T23:51:21.234Z,18.83
2023-02-06T23:53:48.551Z,22.15
2023-02-06T23:56:18.672Z,19.60
2023-02-06T23:58:45.896Z,17.20
